Time;durP1;ratioP1;P1;durP2;ratioP2;P2;SDS_P1;SDS_P2;PMS_P1;PMS_P2;Temp;Humidity;BMP_temperature;BMP_pressure;BME280_temperature;BME280_humidity;BME280_pressure;Samples;Min_cycle;Max_cycle;Signal;HPM_P1;HPM_P2
2021/05/02 00:01:14;;;;;;;12.98;10.93;;;7.30;96.10;;;;;;4986543;28;20076;-37
2021/05/02 00:03:42;;;;;;;11.27;10.00;;;7.30;96.00;;;;;;4973745;28;20104;-37
2021/05/02 00:06:09;;;;;;;11.25;9.45;;;7.30;96.00;;;;;;4986023;28;20030;-38
2021/05/02 00:08:36;;;;;;;12.73;10.52;;;7.20;96.10;;;;;;4973458;28;20030;-37
2021/05/02 00:11:07;;;;;;;10.93;9.82;;;7.10;96.20;;;;;;4985845;28;20033;-37
2021/05/02 00:13:37;;;;;;;12.98;10.98;;;7.10;96.30;;;;;;4975406;28;20051;-37
2021/05/02 00:16:03;;;;;;;11.32;9.98;;;7.10;96.30;;;;;;4984749;28;20312;-36
2021/05/02 00:18:29;;;;;;;10.65;9.55;;;7.10;96.30;;;;;;4976541;28;20024;-35
2021/05/02 00:20:56;;;;;;;13.48;10.70;;;7.10;96.30;;;;;;4981857;28;20443;-38
2021/05/02 00:23:22;;;;;;;15.00;10.35;;;7.00;96.40;;;;;;4980063;28;20042;-38
2021/05/02 00:25:48;;;;;;;14.05;11.50;;;7.00;96.50;;;;;;4978975;28;20025;-35
2021/05/02 00:28:14;;;;;;;11.95;9.90;;;6.90;96.60;;;;;;4982391;28;20034;-39
2021/05/02 00:30:41;;;;;;;11.90;10.70;;;6.90;96.60;;;;;;4977036;28;20084;-37
2021/05/02 00:33:07;;;;;;;12.63;10.73;;;6.90;96.70;;;;;;4983302;28;20046;-37
2021/05/02 00:35:34;;;;;;;12.77;10.43;;;6.80;96.70;;;;;;4974702;28;20689;-35
2021/05/02 00:38:00;;;;;;;14.15;11.02;;;6.70;96.70;;;;;;4984324;28;20075;-38
2021/05/02 00:40:35;;;;;;;14.23;11.13;;;6.70;96.90;;;;;;4974248;28;20503;-36
2021/05/02 00:43:07;;;;;;;13.60;10.95;;;6.80;97.00;;;;;;4984290;28;20038;-37
2021/05/02 00:45:52;;;;;;;12.32;11.02;;;6.80;96.90;;;;;;4982451;28;20157;-38
2021/05/02 00:48:50;;;;;;;12.63;10.55;;;6.80;96.90;;;;;;4984305;28;20069;-38
2021/05/02 00:51:18;;;;;;;14.50;10.68;;;6.90;96.90;;;;;;4964660;28;20042;-38
2021/05/02 00:53:53;;;;;;;14.80;10.88;;;6.90;96.80;;;;;;4983320;28;20031;-38
2021/05/02 00:56:26;;;;;;;13.18;10.70;;;6.90;96.80;;;;;;4966008;28;20073;-39
2021/05/02 00:59:01;;;;;;;11.57;9.23;;;6.90;96.80;;;;;;4968690;28;20035;-36
2021/05/02 01:01:46;;;;;;;13.10;9.65;;;6.90;96.80;;;;;;4975048;28;20034;-35
2021/05/02 01:04:12;;;;;;;11.52;8.82;;;7.00;96.80;;;;;;4984133;28;20037;-36
2021/05/02 01:06:41;;;;;;;10.32;9.20;;;6.90;96.80;;;;;;4974563;28;20030;-35
2021/05/02 01:09:09;;;;;;;12.20;9.25;;;7.00;97.00;;;;;;4966130;28;20504;-37
2021/05/02 01:11:45;;;;;;;11.88;8.85;;;7.00;96.80;;;;;;4976965;28;20173;-38
2021/05/02 01:14:12;;;;;;;12.55;9.65;;;7.00;97.10;;;;;;4966992;28;20116;-36
2021/05/02 01:16:41;;;;;;;11.65;8.52;;;7.10;96.80;;;;;;4976434;28;20041;-37
2021/05/02 01:19:11;;;;;;;10.07;8.57;;;7.10;96.80;;;;;;4965671;28;20031;-35
2021/05/02 01:21:39;;;;;;;11.40;8.90;;;7.10;96.80;;;;;;4975898;28;20030;-38
2021/05/02 01:24:08;;;;;;;15.73;9.48;;;7.10;96.80;;;;;;4966503;28;20181;-38
2021/05/02 01:26:38;;;;;;;12.07;8.93;;;7.10;96.80;;;;;;4977886;28;20105;-38
2021/05/02 01:29:04;;;;;;;11.70;8.82;;;7.10;96.80;;;;;;4965659;28;20026;-38
2021/05/02 01:31:32;;;;;;;11.73;8.20;;;7.10;96.80;;;;;;4977575;28;20414;-38
2021/05/02 01:34:01;;;;;;;10.45;8.10;;;7.10;96.80;;;;;;4965107;28;20038;-38
2021/05/02 01:36:27;;;;;;;10.63;7.90;;;7.20;96.80;;;;;;4976747;28;20022;-37
2021/05/02 01:38:55;;;;;;;12.40;7.97;;;7.20;96.80;;;;;;4966588;28;20027;-37
2021/05/02 01:41:22;;;;;;;9.77;7.43;;;7.20;96.70;;;;;;4974716;28;20022;-37
2021/05/02 01:43:48;;;;;;;11.07;8.07;;;7.20;96.70;;;;;;4967524;28;20077;-34
2021/05/02 01:46:21;;;;;;;8.07;7.03;;;7.20;96.70;;;;;;4972280;28;20014;-36
2021/05/02 01:48:48;;;;;;;10.63;7.07;;;7.20;96.70;;;;;;4969640;28;20367;-36
2021/05/02 01:51:15;;;;;;;8.07;6.72;;;7.20;96.70;;;;;;4970510;28;20109;-38
2021/05/02 01:53:41;;;;;;;7.95;6.55;;;7.10;96.60;;;;;;4972399;28;20077;-35
2021/05/02 01:56:08;;;;;;;7.32;6.32;;;7.10;96.60;;;;;;4968543;28;20024;-38
2021/05/02 01:58:35;;;;;;;7.70;5.97;;;7.10;96.60;;;;;;4973888;28;20533;-35
2021/05/02 02:01:06;;;;;;;8.95;6.22;;;7.00;96.50;;;;;;4966373;28;20041;-36
2021/05/02 02:03:32;;;;;;;7.57;5.75;;;6.80;96.60;;;;;;4965325;28;20077;-38
2021/05/02 02:05:58;;;;;;;7.60;5.97;;;6.70;96.70;;;;;;4969789;28;20018;-44
2021/05/02 02:08:24;;;;;;;11.55;6.30;;;6.60;96.80;;;;;;4983523;28;20213;-38
2021/05/02 02:10:51;;;;;;;7.00;5.75;;;6.50;96.90;;;;;;4987062;28;20505;-35
2021/05/02 02:13:18;;;;;;;8.95;6.22;;;6.40;96.90;;;;;;4976295;28;20049;-38
2021/05/02 02:15:45;;;;;;;7.30;5.45;;;6.30;97.00;;;;;;4988424;28;20039;-37
2021/05/02 02:18:12;;;;;;;9.43;5.93;;;6.20;97.00;;;;;;4975699;28;20173;-38
2021/05/02 02:20:49;;;;;;;8.55;5.90;;;6.20;97.10;;;;;;4988466;28;20081;-38
2021/05/02 02:23:25;;;;;;;8.25;6.00;;;6.10;97.10;;;;;;4976119;28;20156;-38
2021/05/02 02:25:53;;;;;;;6.45;5.75;;;6.10;97.20;;;;;;4987482;28;20034;-39
2021/05/02 02:28:22;;;;;;;9.40;6.72;;;6.00;97.20;;;;;;4975855;28;20038;-38
2021/05/02 02:30:52;;;;;;;6.22;5.53;;;5.90;97.20;;;;;;4987926;28;20474;-38
2021/05/02 02:33:18;;;;;;;9.20;6.65;;;5.90;97.30;;;;;;4976029;28;20708;-39
2021/05/02 02:35:51;;;;;;;8.90;7.03;;;5.90;97.40;;;;;;4986644;28;20071;-38
2021/05/02 02:38:26;;;;;;;9.27;6.47;;;5.90;97.50;;;;;;4978321;28;20023;-34
2021/05/02 02:40:54;;;;;;;8.52;6.53;;;5.90;97.50;;;;;;4985538;28;20121;-38
2021/05/02 02:43:22;;;;;;;8.73;6.45;;;6.00;97.50;;;;;;4979336;28;20077;-37
2021/05/02 02:45:51;;;;;;;8.60;6.85;;;6.00;97.40;;;;;;4968435;28;20066;-38
2021/05/02 02:48:24;;;;;;;9.13;6.90;;;6.10;97.50;;;;;;4978420;28;20039;-36
2021/05/02 02:50:56;;;;;;;11.30;8.50;;;6.10;97.40;;;;;;4982651;28;20022;-37
2021/05/02 02:53:22;;;;;;;10.32;6.75;;;6.20;97.40;;;;;;4981620;28;20039;-39
2021/05/02 02:56:09;;;;;;;9.55;6.35;;;6.20;97.40;;;;;;4980656;28;20819;-39
2021/05/02 02:58:48;;;;;;;7.45;5.85;;;6.20;97.40;;;;;;4980558;28;20359;-38
2021/05/02 03:01:15;;;;;;;8.70;6.00;;;6.20;97.40;;;;;;4982774;28;20424;-36
2021/05/02 03:03:45;;;;;;;11.85;6.55;;;6.30;97.40;;;;;;4981900;28;20026;-39
2021/05/02 03:06:14;;;;;;;7.95;6.53;;;6.30;97.40;;;;;;4981519;28;20031;-38
2021/05/02 03:08:42;;;;;;;6.18;5.45;;;6.30;97.40;;;;;;4976842;28;20038;-36
2021/05/02 03:11:08;;;;;;;7.13;5.38;;;6.30;97.40;;;;;;4975024;28;20475;-38
2021/05/02 03:13:35;;;;;;;7.68;5.75;;;6.30;97.30;;;;;;4969455;28;20047;-37
2021/05/02 03:16:03;;;;;;;8.63;5.32;;;6.30;97.30;;;;;;4977018;28;20019;-36
2021/05/02 03:18:50;;;;;;;8.88;6.05;;;6.20;97.40;;;;;;4968773;28;20537;-37
2021/05/02 03:21:21;;;;;;;8.40;5.95;;;6.20;97.50;;;;;;4967551;28;20030;-37
2021/05/02 03:23:51;;;;;;;8.25;5.50;;;6.20;97.50;;;;;;4970177;28;20133;-38
2021/05/02 03:26:21;;;;;;;7.90;5.57;;;6.20;97.60;;;;;;4967318;28;20027;-38
2021/05/02 03:28:53;;;;;;;10.20;5.80;;;6.10;97.60;;;;;;4968590;28;20030;-34
2021/05/02 03:31:35;;;;;;;9.30;5.88;;;6.10;97.60;;;;;;4976061;28;20069;-39
2021/05/02 03:34:06;;;;;;;8.50;5.50;;;6.00;97.70;;;;;;4985289;28;20402;-38
2021/05/02 03:36:38;;;;;;;8.23;5.30;;;6.00;97.80;;;;;;4975180;28;20034;-37
2021/05/02 03:39:04;;;;;;;5.90;5.30;;;6.00;97.80;;;;;;4984961;28;20105;-38
2021/05/02 03:41:34;;;;;;;8.32;4.85;;;6.10;97.80;;;;;;4975497;28;20118;-36
2021/05/02 03:44:04;;;;;;;6.78;4.35;;;6.10;97.80;;;;;;4985582;28;20050;-36
2021/05/02 03:46:30;;;;;;;8.68;4.40;;;6.10;97.70;;;;;;4975235;28;20042;-36
2021/05/02 03:49:01;;;;;;;7.80;4.32;;;6.10;97.70;;;;;;4985950;28;20037;-35
2021/05/02 03:51:29;;;;;;;7.40;4.65;;;6.10;97.70;;;;;;4973630;28;20505;-38
2021/05/02 03:53:56;;;;;;;5.45;4.18;;;6.00;97.70;;;;;;4986339;28;20048;-33
2021/05/02 03:56:42;;;;;;;10.60;5.60;;;6.00;97.80;;;;;;4973340;28;20043;-38
2021/05/02 03:59:16;;;;;;;6.22;4.43;;;5.90;97.80;;;;;;4985810;28;20061;-34
2021/05/02 04:01:44;;;;;;;6.75;4.38;;;5.80;97.80;;;;;;4972905;28;20101;-37
2021/05/02 04:04:14;;;;;;;8.27;5.07;;;5.70;97.90;;;;;;4986075;28;20625;-37
2021/05/02 04:06:40;;;;;;;5.53;3.97;;;5.60;98.00;;;;;;4973642;28;20022;-37
2021/05/02 04:09:08;;;;;;;6.32;4.82;;;5.70;98.10;;;;;;4969231;28;20034;-38
2021/05/02 04:11:33;;;;;;;7.60;5.15;;;5.60;98.10;;;;;;4976126;28;20084;-38
2021/05/02 04:14:06;;;;;;;6.63;4.70;;;5.60;98.10;;;;;;4967667;28;20058;-38
2021/05/02 04:16:31;;;;;;;9.70;4.80;;;5.50;98.10;;;;;;4975476;28;20065;-36
2021/05/02 04:18:57;;;;;;;8.57;4.40;;;5.50;98.20;;;;;;4968927;28;20070;-38
2021/05/02 04:21:23;;;;;;;4.80;4.10;;;5.40;98.20;;;;;;4972423;28;20088;-37
2021/05/02 04:23:48;;;;;;;4.32;3.63;;;5.40;98.20;;;;;;4971374;28;20031;-35
2021/05/02 04:26:14;;;;;;;6.20;4.13;;;5.40;98.30;;;;;;4969419;28;20113;-34
2021/05/02 04:28:40;;;;;;;4.25;3.83;;;5.30;98.30;;;;;;4973930;28;20034;-38
2021/05/02 04:31:06;;;;;;;6.03;4.68;;;5.30;98.30;;;;;;4967835;28;20030;-37
2021/05/02 04:33:32;;;;;;;8.45;3.97;;;5.30;98.30;;;;;;4976295;28;20633;-38
2021/05/02 04:35:57;;;;;;;6.43;4.15;;;5.30;98.30;;;;;;4967270;28;20026;-37
2021/05/02 04:38:23;;;;;;;7.15;4.20;;;5.30;98.30;;;;;;4976859;28;20511;-37
2021/05/02 04:40:51;;;;;;;5.90;4.20;;;5.30;98.30;;;;;;4966006;28;20093;-37
2021/05/02 04:43:17;;;;;;;9.10;4.40;;;5.30;98.30;;;;;;4980662;28;20061;-37
2021/05/02 04:45:42;;;;;;;6.50;4.53;;;5.20;98.30;;;;;;4965705;28;20066;-37
2021/05/02 04:48:08;;;;;;;5.95;4.35;;;5.20;98.40;;;;;;4977993;28;20156;-38
2021/05/02 04:50:34;;;;;;;8.18;4.30;;;5.20;98.40;;;;;;4965925;28;20461;-37
2021/05/02 04:53:00;;;;;;;9.27;4.85;;;5.20;98.50;;;;;;4976059;28;20438;-40
2021/05/02 04:55:26;;;;;;;7.30;4.22;;;5.20;98.50;;;;;;4967469;28;20109;-37
2021/05/02 04:57:53;;;;;;;9.00;4.45;;;5.20;98.50;;;;;;4974003;28;20118;-38
2021/05/02 05:00:21;;;;;;;5.63;3.97;;;5.20;98.50;;;;;;4968952;28;20054;-39
2021/05/02 05:02:47;;;;;;;6.75;4.28;;;5.20;98.50;;;;;;4972471;28;20073;-39
2021/05/02 05:05:12;;;;;;;5.72;4.03;;;5.20;98.50;;;;;;4971774;28;20623;-39
2021/05/02 05:07:38;;;;;;;5.85;4.45;;;5.20;98.50;;;;;;4970854;28;20061;-37
2021/05/02 05:10:06;;;;;;;6.70;4.13;;;5.20;98.50;;;;;;4972905;28;20027;-39
2021/05/02 05:12:32;;;;;;;5.70;4.18;;;5.30;98.80;;;;;;4967091;28;20665;-39
2021/05/02 05:14:57;;;;;;;5.72;4.07;;;5.30;98.50;;;;;;4975545;28;20087;-39
2021/05/02 05:17:23;;;;;;;5.05;3.85;;;5.30;98.40;;;;;;4967318;28;20225;-39
2021/05/02 05:19:51;;;;;;;5.03;3.72;;;5.40;98.40;;;;;;4976260;28;20023;-39
2021/05/02 05:22:16;;;;;;;6.72;4.13;;;5.40;98.40;;;;;;4966184;28;20118;-39
2021/05/02 05:24:42;;;;;;;7.45;3.90;;;5.40;98.40;;;;;;4976930;28;20145;-39
2021/05/02 05:27:07;;;;;;;4.72;3.33;;;5.50;98.40;;;;;;4965598;28;20182;-39
2021/05/02 05:29:33;;;;;;;7.45;4.00;;;5.50;98.40;;;;;;4977024;28;20400;-38
2021/05/02 05:31:59;;;;;;;7.60;4.28;;;5.60;98.40;;;;;;4966191;28;20042;-39
2021/05/02 05:34:24;;;;;;;7.43;4.53;;;5.60;98.30;;;;;;4977256;28;20096;-38
2021/05/02 05:36:50;;;;;;;6.05;3.75;;;5.60;98.40;;;;;;4965261;28;20022;-39
2021/05/02 05:39:15;;;;;;;7.53;4.07;;;5.70;98.30;;;;;;4975179;28;20026;-38
2021/05/02 05:41:41;;;;;;;7.20;4.00;;;5.70;98.30;;;;;;4972128;28;20452;-37
2021/05/02 05:44:09;;;;;;;7.28;4.75;;;5.70;98.40;;;;;;4975304;28;20042;-41
2021/05/02 05:46:34;;;;;;;9.00;4.80;;;5.80;98.50;;;;;;4974473;28;20140;-38
2021/05/02 05:49:00;;;;;;;7.03;5.10;;;5.80;98.40;;;;;;4972762;28;20540;-37
2021/05/02 05:51:25;;;;;;;6.43;4.35;;;5.90;98.50;;;;;;4977048;28;20506;-37
2021/05/02 05:53:51;;;;;;;5.68;4.25;;;5.90;98.40;;;;;;4969809;28;20045;-34
2021/05/02 05:56:16;;;;;;;6.05;3.95;;;6.00;98.40;;;;;;4979445;28;20042;-36
2021/05/02 05:58:42;;;;;;;5.68;3.90;;;6.10;98.30;;;;;;4969681;28;20031;-38
2021/05/02 06:01:07;;;;;;;9.48;4.85;;;6.10;98.30;;;;;;4979864;28;20037;-39
2021/05/02 06:03:36;;;;;;;7.47;3.90;;;6.20;98.40;;;;;;4968200;28;20181;-40
2021/05/02 06:06:01;;;;;;;9.00;4.20;;;6.30;98.30;;;;;;4982775;28;20138;-39
2021/05/02 06:08:27;;;;;;;7.55;4.03;;;6.30;98.30;;;;;;4978887;28;20161;-37
2021/05/02 06:10:52;;;;;;;8.10;4.15;;;6.40;98.30;;;;;;4975161;28;20205;-38
2021/05/02 06:13:21;;;;;;;7.30;4.22;;;6.50;98.20;;;;;;4988144;28;20038;-37
2021/05/02 06:15:47;;;;;;;8.70;3.50;;;6.60;98.10;;;;;;4975996;28;20030;-38
2021/05/02 06:18:13;;;;;;;6.78;3.03;;;6.70;98.00;;;;;;4987296;28;20042;-39
2021/05/02 06:20:38;;;;;;;7.70;3.42;;;6.70;97.60;;;;;;4978457;28;20030;-38
2021/05/02 06:23:04;;;;;;;6.13;3.33;;;6.80;97.40;;;;;;4984535;28;20302;-37
2021/05/02 06:25:30;;;;;;;6.78;4.13;;;6.80;97.20;;;;;;4980131;28;20035;-38
2021/05/02 06:27:56;;;;;;;8.18;3.78;;;6.90;96.60;;;;;;4981543;28;20034;-39
2021/05/02 06:30:23;;;;;;;8.70;3.28;;;7.00;96.40;;;;;;4984124;28;20085;-39
2021/05/02 06:32:49;;;;;;;10.05;3.47;;;7.00;96.60;;;;;;4978985;28;20185;-38
2021/05/02 06:35:15;;;;;;;9.40;3.00;;;7.10;96.00;;;;;;4986183;28;20548;-38
2021/05/02 06:37:40;;;;;;;7.25;3.35;;;7.10;95.70;;;;;;4976744;28;20485;-38
2021/05/02 06:40:06;;;;;;;7.28;2.72;;;7.20;95.50;;;;;;4985312;28;20795;-37
2021/05/02 06:42:32;;;;;;;5.13;3.08;;;7.20;95.70;;;;;;4976187;28;20031;-37
2021/05/02 06:44:58;;;;;;;5.45;2.90;;;7.30;95.80;;;;;;4986825;28;20030;-37
2021/05/02 06:47:23;;;;;;;7.38;2.70;;;7.30;95.70;;;;;;4975487;28;20010;-39
2021/05/02 06:49:49;;;;;;;7.07;2.78;;;7.40;95.40;;;;;;4986465;28;20034;-38
2021/05/02 06:52:21;;;;;;;7.20;3.00;;;7.40;95.30;;;;;;4974646;28;20030;-38
2021/05/02 06:54:54;;;;;;;8.55;3.17;;;7.40;94.60;;;;;;4986914;28;20390;-38
2021/05/02 06:57:19;;;;;;;6.00;2.70;;;7.50;95.00;;;;;;4974942;28;20395;-38
2021/05/02 06:59:45;;;;;;;6.75;3.35;;;7.50;94.80;;;;;;4986673;28;20030;-38
2021/05/02 07:02:10;;;;;;;7.63;3.45;;;7.50;94.80;;;;;;4977279;28;20062;-39
2021/05/02 07:04:36;;;;;;;6.03;3.42;;;7.60;94.40;;;;;;4984895;28;20058;-38
2021/05/02 07:07:02;;;;;;;9.50;3.28;;;7.60;94.40;;;;;;4979786;28;20034;-34
2021/05/02 07:09:28;;;;;;;4.72;2.60;;;7.70;94.40;;;;;;4985326;28;20091;-39
2021/05/02 07:11:53;;;;;;;6.80;2.50;;;7.70;93.90;;;;;;4982115;28;20541;-39
2021/05/02 07:14:19;;;;;;;5.90;2.47;;;7.80;94.00;;;;;;4979326;28;20111;-38
2021/05/02 07:16:45;;;;;;;6.38;2.47;;;8.00;94.20;;;;;;4984055;28;20105;-38
2021/05/02 07:19:12;;;;;;;5.63;3.42;;;8.10;94.00;;;;;;4977959;28;20049;-38
2021/05/02 07:21:37;;;;;;;5.30;2.50;;;8.30;92.50;;;;;;4984793;28;20019;-37
2021/05/02 07:24:03;;;;;;;5.03;2.70;;;8.40;92.10;;;;;;4975978;28;20306;-38
2021/05/02 07:26:29;;;;;;;4.32;2.50;;;8.50;92.30;;;;;;4986238;28;20014;-40
2021/05/02 07:28:54;;;;;;;5.22;2.33;;;8.60;91.90;;;;;;4975206;28;20101;-37
2021/05/02 07:31:20;;;;;;;2.50;1.77;;;8.60;91.70;;;;;;4987467;28;20030;-39
2021/05/02 07:33:46;;;;;;;3.60;2.10;;;8.70;92.00;;;;;;4973620;28;20046;-37
2021/05/02 07:36:13;;;;;;;2.20;2.00;;;8.80;92.00;;;;;;4986443;28;20417;-37
2021/05/02 07:38:39;;;;;;;4.82;2.00;;;8.90;91.00;;;;;;4974342;28;20636;-39
2021/05/02 07:41:08;;;;;;;4.05;2.03;;;8.90;90.90;;;;;;4986537;28;20030;-40
2021/05/02 07:43:34;;;;;;;5.68;2.13;;;8.90;91.00;;;;;;4975937;28;20041;-38
2021/05/02 07:46:00;;;;;;;2.00;1.40;;;9.00;89.80;;;;;;4984852;28;20034;-38
2021/05/02 07:48:26;;;;;;;3.00;1.30;;;9.10;90.40;;;;;;4978516;28;20041;-38
2021/05/02 07:50:51;;;;;;;1.75;1.50;;;9.20;90.10;;;;;;4981399;28;20303;-37
2021/05/02 07:53:18;;;;;;;3.08;1.50;;;9.20;87.60;;;;;;4982083;28;20513;-38
2021/05/02 07:55:44;;;;;;;2.95;1.48;;;9.20;84.60;;;;;;4978650;28;20030;-38
2021/05/02 07:58:09;;;;;;;5.20;1.50;;;9.10;85.10;;;;;;4982429;28;20019;-37
2021/05/02 08:00:35;;;;;;;6.25;1.70;;;9.10;83.40;;;;;;4976535;28;20137;-34
2021/05/02 08:03:00;;;;;;;4.25;1.65;;;9.10;83.10;;;;;;4966684;28;20064;-37
2021/05/02 08:05:26;;;;;;;3.80;1.40;;;9.10;84.20;;;;;;4977596;28;20442;-37
2021/05/02 08:07:52;;;;;;;4.55;1.63;;;9.10;85.00;;;;;;4969406;28;20038;-39
2021/05/02 08:10:20;;;;;;;4.20;1.65;;;9.30;85.70;;;;;;4974458;28;20026;-39
2021/05/02 08:12:45;;;;;;;4.80;1.83;;;9.40;86.50;;;;;;4985881;28;20061;-38
2021/05/02 08:15:11;;;;;;;3.17;1.42;;;9.40;85.90;;;;;;4973621;28;20089;-37
2021/05/02 08:17:37;;;;;;;3.97;1.80;;;9.50;86.70;;;;;;4985495;28;20033;-35
2021/05/02 08:20:07;;;;;;;5.47;1.58;;;9.50;85.60;;;;;;4973231;28;20046;-40
2021/05/02 08:22:33;;;;;;;4.40;1.40;;;9.60;85.40;;;;;;4985528;28;20035;-38
2021/05/02 08:24:58;;;;;;;2.67;1.73;;;9.60;85.10;;;;;;4974807;28;20026;-38
2021/05/02 08:27:24;;;;;;;3.28;1.70;;;9.60;83.60;;;;;;4984226;28;20556;-38
2021/05/02 08:29:52;;;;;;;2.63;1.55;;;9.60;84.00;;;;;;4976579;28;20078;-38
2021/05/02 08:32:18;;;;;;;3.17;1.33;;;9.60;81.00;;;;;;4981421;28;20041;-37
2021/05/02 08:34:43;;;;;;;3.03;1.40;;;9.50;79.60;;;;;;4979851;28;20030;-37
2021/05/02 08:37:09;;;;;;;4.75;1.30;;;9.50;80.80;;;;;;4978997;28;20052;-38
2021/05/02 08:39:35;;;;;;;2.58;1.40;;;9.50;80.50;;;;;;4981868;28;20026;-36
2021/05/02 08:42:01;;;;;;;2.20;1.27;;;9.60;81.70;;;;;;4975783;28;20040;-37
2021/05/02 08:44:29;;;;;;;1.85;1.23;;;9.70;78.50;;;;;;4984046;28;20026;-39
2021/05/02 08:46:55;;;;;;;3.05;1.33;;;9.70;79.60;;;;;;4974183;28;20117;-35
2021/05/02 08:49:20;;;;;;;3.15;1.20;;;9.70;80.20;;;;;;4983953;28;20117;-38
2021/05/02 08:51:47;;;;;;;1.38;0.88;;;9.80;81.10;;;;;;4974037;28;20057;-39
2021/05/02 08:54:13;;;;;;;3.30;1.45;;;9.80;81.60;;;;;;4985052;28;20466;-36
2021/05/02 08:56:39;;;;;;;2.85;1.25;;;9.80;80.80;;;;;;4972970;28;20079;-37
2021/05/02 08:59:07;;;;;;;2.45;1.20;;;9.80;80.70;;;;;;4985182;28;20421;-39
2021/05/02 09:01:33;;;;;;;2.78;1.83;;;9.70;80.30;;;;;;4972576;28;20027;-40
2021/05/02 09:04:02;;;;;;;2.90;1.30;;;9.80;80.20;;;;;;4985841;28;20109;-38
2021/05/02 09:06:29;;;;;;;2.00;1.10;;;9.90;79.50;;;;;;4973561;28;20026;-39
2021/05/02 09:09:16;;;;;;;2.78;1.10;;;9.90;77.30;;;;;;4972874;28;20087;-37
2021/05/02 09:11:47;;;;;;;4.35;1.50;;;10.00;76.60;;;;;;4976516;28;20057;-37
2021/05/02 09:14:23;;;;;;;2.78;1.23;;;10.00;77.30;;;;;;4968068;28;20837;-38
2021/05/02 09:17:11;;;;;;;2.88;1.10;;;10.10;78.40;;;;;;4980561;28;20794;-36
2021/05/02 09:19:47;;;;;;;1.77;0.93;;;10.10;78.50;;;;;;4970142;28;20034;-38
2021/05/02 09:22:14;;;;;;;2.45;1.40;;;10.30;78.50;;;;;;4975075;28;20026;-39
2021/05/02 09:24:58;;;;;;;4.05;1.38;;;10.50;77.40;;;;;;4989420;28;20050;-39
2021/05/02 09:27:24;;;;;;;2.60;1.23;;;10.50;74.40;;;;;;4976719;28;20054;-38
2021/05/02 09:29:49;;;;;;;1.55;1.10;;;10.40;75.10;;;;;;4988731;28;20524;-38
2021/05/02 09:32:15;;;;;;;1.98;1.00;;;10.40;74.00;;;;;;4979233;28;20517;-38
2021/05/02 09:34:52;;;;;;;1.25;0.88;;;10.50;74.30;;;;;;4986980;28;20034;-39
2021/05/02 09:37:21;;;;;;;1.30;0.90;;;10.60;73.70;;;;;;4979678;28;20030;-37
2021/05/02 09:39:55;;;;;;;1.60;0.70;;;10.70;75.00;;;;;;4986911;28;20037;-41
2021/05/02 09:42:34;;;;;;;2.63;1.08;;;10.90;75.30;;;;;;4979821;28;20569;-41
2021/05/02 09:45:01;;;;;;;2.40;1.10;;;11.10;69.50;;;;;;4987054;28;20100;-38
2021/05/02 09:47:31;;;;;;;2.45;1.00;;;11.10;70.60;;;;;;4980449;28;20053;-37
2021/05/02 09:50:16;;;;;;;3.85;1.00;;;11.00;69.80;;;;;;4984944;28;20030;-37
2021/05/02 09:52:43;;;;;;;3.95;1.30;;;10.90;71.20;;;;;;4979551;28;20039;-39
2021/05/02 09:55:22;;;;;;;2.97;1.00;;;10.90;70.80;;;;;;4984382;28;20275;-40
2021/05/02 09:57:59;;;;;;;1.30;1.00;;;10.80;70.00;;;;;;4979779;28;20034;-38
2021/05/02 10:00:44;;;;;;;1.38;0.90;;;10.70;71.50;;;;;;4986332;28;20476;-39
2021/05/02 10:03:17;;;;;;;2.58;1.17;;;10.70;72.90;;;;;;4977866;28;20038;-38
2021/05/02 10:05:59;;;;;;;2.35;1.58;;;10.70;72.10;;;;;;4986303;28;20034;-38
2021/05/02 10:08:36;;;;;;;2.40;1.02;;;10.60;71.40;;;;;;4984844;28;20092;-36
2021/05/02 10:11:06;;;;;;;2.80;1.30;;;10.40;71.70;;;;;;4987984;28;20026;-40
2021/05/02 10:13:37;;;;;;;3.42;1.05;;;10.30;73.00;;;;;;4981731;28;20077;-39
2021/05/02 10:16:04;;;;;;;1.10;0.95;;;10.30;74.00;;;;;;4969587;28;20435;-37
2021/05/02 10:18:30;;;;;;;3.80;1.00;;;10.40;74.60;;;;;;4976068;28;20372;-39
2021/05/02 10:20:55;;;;;;;2.55;1.00;;;10.50;75.10;;;;;;4972724;28;20107;-39
2021/05/02 10:23:22;;;;;;;1.80;1.02;;;10.50;75.50;;;;;;4973999;28;20121;-39
2021/05/02 10:25:50;;;;;;;1.65;0.93;;;10.70;74.30;;;;;;4974034;28;20584;-38
2021/05/02 10:28:23;;;;;;;3.15;1.00;;;10.70;74.80;;;;;;4972015;28;20035;-38
2021/05/02 10:31:00;;;;;;;1.30;0.85;;;10.70;75.20;;;;;;4975129;28;20105;-38
2021/05/02 10:33:44;;;;;;;1.45;1.00;;;10.80;75.50;;;;;;4971538;28;20062;-38
2021/05/02 10:36:22;;;;;;;1.35;1.02;;;10.90;74.60;;;;;;4974899;28;20038;-37
2021/05/02 10:38:54;;;;;;;1.88;1.02;;;10.90;74.50;;;;;;4970869;28;20027;-39
2021/05/02 10:41:24;;;;;;;2.53;1.15;;;10.80;70.20;;;;;;4975078;28;20438;-36
2021/05/02 10:43:51;;;;;;;1.55;0.90;;;10.70;70.10;;;;;;4971557;28;20077;-39
2021/05/02 10:46:44;;;;;;;1.92;1.20;;;10.60;70.90;;;;;;4976330;28;20039;-36
2021/05/02 10:49:29;;;;;;;2.58;0.90;;;10.50;71.70;;;;;;4972936;28;20090;-39
2021/05/02 10:51:59;;;;;;;1.30;0.95;;;10.50;72.50;;;;;;4970817;28;20487;-38
2021/05/02 10:54:42;;;;;;;0.93;0.75;;;10.50;71.80;;;;;;4973291;28;20089;-34
2021/05/02 10:57:08;;;;;;;2.65;0.73;;;10.60;72.60;;;;;;4971851;28;20031;-37
2021/05/02 11:00:00;;;;;;;1.00;0.60;;;10.70;71.60;;;;;;4972490;28;20457;-38
2021/05/02 11:02:37;;;;;;;0.88;0.70;;;10.70;70.70;;;;;;4971089;28;20332;-39
2021/05/02 11:05:03;;;;;;;2.08;0.85;;;10.70;70.70;;;;;;4975482;28;20033;-39
2021/05/02 11:07:34;;;;;;;2.50;0.90;;;10.80;69.30;;;;;;4970777;28;20387;-39
2021/05/02 11:10:00;;;;;;;2.40;1.08;;;10.90;69.10;;;;;;4980250;28;20076;-39
2021/05/02 11:12:28;;;;;;;1.70;0.90;;;11.00;68.40;;;;;;4981343;28;20026;-38
2021/05/02 11:14:54;;;;;;;1.67;0.88;;;11.20;68.50;;;;;;4982350;28;20109;-40
2021/05/02 11:17:21;;;;;;;1.77;1.13;;;11.30;69.30;;;;;;4979185;28;20109;-41
2021/05/02 11:19:47;;;;;;;3.17;1.00;;;11.40;68.00;;;;;;4984164;28;20102;-37
2021/05/02 11:22:15;;;;;;;1.48;1.02;;;11.40;68.40;;;;;;4976283;28;20559;-37
2021/05/02 11:24:42;;;;;;;1.52;1.00;;;11.40;68.00;;;;;;4985637;28;20026;-38
2021/05/02 11:27:20;;;;;;;1.73;1.15;;;11.40;68.50;;;;;;4975298;28;20061;-39
2021/05/02 11:29:53;;;;;;;1.55;1.13;;;11.30;69.50;;;;;;4984955;28;20025;-39
2021/05/02 11:32:30;;;;;;;3.50;1.23;;;11.30;70.50;;;;;;4976097;28;20034;-36
2021/05/02 11:34:58;;;;;;;1.60;1.10;;;11.40;71.10;;;;;;4984600;28;20113;-39
2021/05/02 11:37:48;;;;;;;1.35;1.02;;;11.40;70.60;;;;;;4975633;28;20031;-38
2021/05/02 11:40:35;;;;;;;2.38;1.30;;;11.50;71.20;;;;;;4984774;28;20031;-39
2021/05/02 11:43:01;;;;;;;1.20;1.10;;;11.50;71.10;;;;;;4977104;28;20035;-37
2021/05/02 11:45:31;;;;;;;1.77;1.08;;;11.60;71.60;;;;;;4983713;28;20193;-39
2021/05/02 11:47:58;;;;;;;2.10;1.20;;;11.60;71.50;;;;;;4977393;28;20192;-39
2021/05/02 11:50:24;;;;;;;2.25;1.20;;;11.70;69.00;;;;;;4968677;28;20179;-38
2021/05/02 11:52:52;;;;;;;1.90;1.30;;;11.70;68.30;;;;;;4977423;28;20029;-38
2021/05/02 11:55:29;;;;;;;1.15;0.80;;;11.70;69.20;;;;;;4966569;28;20683;-38
2021/05/02 11:57:55;;;;;;;2.05;1.10;;;11.70;69.80;;;;;;4977794;28;20434;-37
2021/05/02 12:00:44;;;;;;;1.20;1.10;;;11.70;69.20;;;;;;4966651;28;20126;-39
2021/05/02 12:03:11;;;;;;;3.15;1.20;;;11.60;69.90;;;;;;4977162;28;20049;-38
2021/05/02 12:05:49;;;;;;;1.35;1.20;;;11.50;70.50;;;;;;4966974;28;20022;-39
2021/05/02 12:08:17;;;;;;;3.60;1.50;;;11.30;71.30;;;;;;4978246;28;20031;-38
2021/05/02 12:10:43;;;;;;;1.80;1.48;;;11.20;72.30;;;;;;4966007;28;20054;-39
2021/05/02 12:13:44;;;;;;;1.45;1.23;;;11.00;72.10;;;;;;4978136;28;20038;-37
2021/05/02 12:16:18;;;;;;;2.10;1.10;;;11.00;72.70;;;;;;4945615;28;20071;-35
2021/05/02 12:19:02;;;;;;;1.92;0.90;;;11.10;72.30;;;;;;4977307;28;20030;-38
2021/05/02 12:21:36;;;;;;;1.77;0.90;;;11.20;70.90;;;;;;4967006;28;20042;-38
2021/05/02 12:24:17;;;;;;;1.27;0.95;;;11.30;71.00;;;;;;4976409;28;20092;-39
2021/05/02 12:26:48;;;;;;;2.80;1.30;;;11.40;68.30;;;;;;4966951;28;20050;-35
2021/05/02 12:29:29;;;;;;;3.13;1.23;;;11.40;66.70;;;;;;4977308;28;20019;-38
2021/05/02 12:32:14;;;;;;;1.88;1.20;;;11.40;66.90;;;;;;4966609;28;20026;-38
2021/05/02 12:34:46;;;;;;;1.70;1.20;;;11.40;67.90;;;;;;4965852;28;20039;-39
2021/05/02 12:37:19;;;;;;;2.70;1.23;;;11.50;68.80;;;;;;4968658;28;20032;-38
2021/05/02 12:39:47;;;;;;;1.73;1.10;;;11.70;69.10;;;;;;4974387;28;20038;-36
2021/05/02 12:42:13;;;;;;;2.33;1.35;;;11.90;68.20;;;;;;4984007;28;20040;-36
2021/05/02 12:44:40;;;;;;;1.42;0.90;;;11.90;68.20;;;;;;4973522;28;20105;-35
2021/05/02 12:47:20;;;;;;;1.02;1.02;;;11.80;67.50;;;;;;4984980;28;20424;-37
2021/05/02 12:49:52;;;;;;;1.42;1.00;;;11.60;69.00;;;;;;4981988;28;20061;-36
2021/05/02 12:52:17;;;;;;;0.98;0.88;;;11.50;70.60;;;;;;4984218;28;20053;-39
2021/05/02 12:54:43;;;;;;;1.15;1.05;;;11.20;73.90;;;;;;4973613;28;20188;-39
2021/05/02 12:57:16;;;;;;;2.50;1.42;;;11.10;75.00;;;;;;4984940;28;20118;-39
2021/05/02 13:02:33;;;;;;;1.95;0.93;;;11.10;77.20;;;;;;4985869;28;20478;-39
2021/05/02 13:05:11;;;;;;;0.90;0.90;;;11.30;75.40;;;;;;4972713;28;20042;-38
2021/05/02 13:07:43;;;;;;;1.52;0.95;;;11.50;72.80;;;;;;4985268;28;20046;-35